Time;durP1;ratioP1;P1;durP2;ratioP2;P2;SDS_P1;SDS_P2;PMS_P1;PMS_P2;Temp;Humidity;BMP_temperature;BMP_pressure;BME280_temperature;BME280_humidity;BME280_pressure;Samples;Min_cycle;Max_cycle;Signal;HPM_P1;HPM_P2
2022/04/16 00:00:33;;;;;;;1.90;1.70;;;;;;;7.41;82.61;98313.81;6177350;28;20710;-82
2022/04/16 00:03:35;;;;;;;2.03;1.90;;;;;;;7.41;81.95;98305.09;6177597;28;20254;-82
2022/04/16 00:06:37;;;;;;;1.57;1.47;;;;;;;7.41;82.06;98305.94;6179243;28;20221;-82
2022/04/16 00:09:39;;;;;;;2.03;1.93;;;;;;;7.41;82.44;98300.69;6161796;28;20227;-82
2022/04/16 00:12:43;;;;;;;2.20;1.90;;;;;;;7.43;82.38;98305.00;6162387;28;20232;-82
2022/04/16 00:15:46;;;;;;;2.23;2.03;;;;;;;7.43;82.53;98310.25;6161140;28;20704;-82
2022/04/16 00:18:49;;;;;;;2.30;2.10;;;;;;;7.37;82.53;98301.81;6177592;28;20311;-82
2022/04/16 00:21:51;;;;;;;2.03;1.83;;;;;;;7.36;81.71;98302.75;6161680;28;20225;-82
2022/04/16 00:24:53;;;;;;;1.90;1.80;;;;;;;7.38;81.56;98313.19;6162407;28;20241;-81
2022/04/16 00:27:55;;;;;;;1.87;1.77;;;;;;;7.40;81.87;98304.25;6177795;28;20229;-82
2022/04/16 00:30:58;;;;;;;2.23;2.03;;;;;;;7.41;82.07;98303.31;6178959;28;20439;-82
2022/04/16 00:34:01;;;;;;;2.00;1.80;;;;;;;7.41;82.02;98305.09;6166669;28;20752;-82
2022/04/16 00:37:03;;;;;;;2.43;2.23;;;;;;;7.41;81.84;98298.06;6198196;28;20270;-82
2022/04/16 00:40:06;;;;;;;2.23;2.03;;;;;;;7.43;82.30;98307.63;6191435;28;20791;-81
2022/04/16 00:43:29;;;;;;;2.70;2.20;;;;;;;7.41;81.98;98300.69;6184065;28;20239;-82
2022/04/16 00:46:31;;;;;;;2.60;2.40;;;;;;;7.38;80.86;98295.63;6182636;28;20842;-82
2022/04/16 00:49:33;;;;;;;2.60;2.40;;;;;;;7.46;80.53;98299.59;6181429;28;20235;-82
2022/04/16 00:52:36;;;;;;;2.83;2.53;;;;;;;7.51;80.00;98294.91;6184013;28;20253;-82
2022/04/16 00:55:39;;;;;;;2.40;2.20;;;;;;;7.53;78.73;98291.25;6181235;28;20789;-82
2022/04/16 00:58:41;;;;;;;2.87;2.67;;;;;;;7.57;77.63;98294.56;6182274;28;20237;-81
2022/04/16 01:01:43;;;;;;;3.10;2.53;;;;;;;7.58;77.71;98289.22;6181213;28;21011;-82
2022/04/16 01:04:46;;;;;;;2.43;2.23;;;;;;;7.59;77.46;98287.41;6183892;28;20233;-82
2022/04/16 01:07:53;;;;;;;2.10;1.90;;;;;;;7.62;77.46;98282.00;6183629;28;20235;-82
2022/04/16 01:10:55;;;;;;;2.37;2.17;;;;;;;7.60;77.71;98282.09;6164713;28;20724;-82
2022/04/16 01:14:01;;;;;;;3.17;2.27;;;;;;;7.60;78.16;98284.72;6172624;28;20225;-82
2022/04/16 01:17:04;;;;;;;2.83;2.63;;;;;;;7.52;79.08;98288.72;6180611;28;20243;-82
2022/04/16 01:20:09;;;;;;;3.07;2.73;;;;;;;7.46;79.66;98289.09;6180731;28;20309;-82
2022/04/16 01:23:11;;;;;;;2.60;2.40;;;;;;;7.45;79.01;98290.88;6182374;28;20260;-82
2022/04/16 01:26:14;;;;;;;2.10;1.80;;;;;;;7.43;79.99;98286.63;6157391;28;20313;-81
2022/04/16 01:29:17;;;;;;;3.20;2.87;;;;;;;7.41;79.79;98279.69;6169479;28;20236;-81
2022/04/16 01:32:20;;;;;;;2.97;2.67;;;;;;;7.44;80.08;98278.66;6175156;28;20593;-82
2022/04/16 01:35:22;;;;;;;2.60;2.40;;;;;;;7.46;79.76;98283.84;6185460;28;20233;-82
2022/04/16 01:38:27;;;;;;;2.77;2.57;;;;;;;7.43;79.92;98282.22;6185988;28;20236;-82
2022/04/16 01:41:29;;;;;;;2.43;2.23;;;;;;;7.48;79.37;98284.59;6156687;28;20729;-82
2022/04/16 01:44:32;;;;;;;5.30;2.40;;;;;;;7.49;78.70;98283.63;6176682;28;20597;-82
2022/04/16 01:47:38;;;;;;;3.77;2.70;;;;;;;7.52;78.14;98291.34;6156508;28;20239;-82
2022/04/16 01:50:40;;;;;;;2.70;2.50;;;;;;;7.56;78.46;98285.00;6164735;28;20235;-82
2022/04/16 01:53:43;;;;;;;2.87;2.67;;;;;;;7.54;77.78;98273.72;6164597;28;20255;-82
2022/04/16 01:56:45;;;;;;;3.30;3.00;;;;;;;7.58;76.75;98278.72;6180378;28;20732;-82
2022/04/16 01:59:48;;;;;;;2.90;2.70;;;;;;;7.57;75.92;98279.66;6179584;28;20235;-82
2022/04/16 02:02:50;;;;;;;3.10;2.90;;;;;;;7.62;75.42;98284.63;6181728;28;20236;-82
2022/04/16 02:05:53;;;;;;;3.40;3.13;;;;;;;7.65;74.98;98273.94;6180454;28;20231;-82
2022/04/16 02:08:56;;;;;;;3.03;2.73;;;;;;;7.67;74.39;98279.97;6164075;28;20750;-82
2022/04/16 02:11:58;;;;;;;2.80;2.60;;;;;;;7.69;74.31;98270.19;6180334;28;20701;-82
2022/04/16 02:15:01;;;;;;;3.20;3.00;;;;;;;7.71;74.21;98268.31;6180311;28;20597;-82
2022/04/16 02:18:03;;;;;;;3.43;3.17;;;;;;;7.70;74.22;98262.22;6179796;28;20250;-82
2022/04/16 02:21:05;;;;;;;3.43;3.13;;;;;;;7.72;74.33;98264.75;6163653;28;20220;-82
2022/04/16 02:24:07;;;;;;;3.40;3.20;;;;;;;7.72;73.05;98262.13;6181322;28;20226;-81
2022/04/16 02:27:09;;;;;;;3.13;2.87;;;;;;;7.74;72.89;98258.47;6179635;28;20679;-82
2022/04/16 02:30:14;;;;;;;3.03;2.83;;;;;;;7.78;72.32;98254.75;6180866;28;20227;-82
2022/04/16 02:33:16;;;;;;;3.00;2.80;;;;;;;7.76;73.72;98253.16;6164122;28;20219;-82
2022/04/16 02:36:19;;;;;;;4.97;3.43;;;;;;;7.69;73.96;98259.69;6184466;28;20220;-82
2022/04/16 02:39:21;;;;;;;4.00;3.67;;;;;;;7.70;73.58;98253.50;6179826;28;20702;-82
2022/04/16 02:42:23;;;;;;;3.70;3.40;;;;;;;7.70;72.44;98261.38;6179438;28;20221;-82
2022/04/16 02:48:46;;;;;;;3.80;3.37;;;;;;;7.76;72.76;98255.78;6172229;28;20235;-82
2022/04/16 02:51:50;;;;;;;4.17;3.77;;;;;;;7.74;72.21;98258.47;6152299;28;20279;-82
2022/04/16 02:54:52;;;;;;;3.83;3.53;;;;;;;7.76;72.33;98261.03;6176454;28;20602;-82
2022/04/16 02:57:55;;;;;;;4.47;3.47;;;;;;;7.76;72.86;98253.16;6179399;28;20297;-82
2022/04/16 03:00:57;;;;;;;4.40;3.70;;;;;;;7.74;72.66;98258.47;6181400;28;20247;-82
2022/04/16 03:04:00;;;;;;;4.27;3.87;;;;;;;7.76;72.46;98251.38;6162989;28;20578;-82
2022/04/16 03:07:02;;;;;;;4.00;3.70;;;;;;;7.75;72.45;98248.81;6175269;28;20241;-83
2022/04/16 03:10:06;;;;;;;3.77;3.47;;;;;;;7.76;72.52;98250.50;6156313;28;20225;-82
2022/04/16 03:13:08;;;;;;;4.00;3.70;;;;;;;7.76;72.65;98242.63;6179563;28;20348;-82
2022/04/16 03:19:31;;;;;;;4.10;3.50;;;;;;;7.72;72.24;98233.22;6181253;28;20235;-82
2022/04/16 03:22:34;;;;;;;4.00;3.70;;;;;;;7.71;72.83;98240.25;6175084;28;20251;-82
2022/04/16 03:25:41;;;;;;;3.57;3.10;;;;;;;7.67;72.28;98238.78;6178037;28;20242;-82
2022/04/16 03:28:43;;;;;;;3.77;3.40;;;;;;;7.70;72.15;98237.72;6162212;28;20240;-82
2022/04/16 03:31:45;;;;;;;3.73;3.43;;;;;;;7.72;71.58;98249.00;6177990;28;20746;-82
2022/04/16 03:34:47;;;;;;;3.47;3.17;;;;;;;7.72;72.04;98247.22;6163318;28;20721;-82
2022/04/16 03:37:50;;;;;;;3.10;2.90;;;;;;;7.72;71.98;98254.25;6181823;28;20229;-82
2022/04/16 03:40:52;;;;;;;3.43;3.13;;;;;;;7.68;72.30;98260.63;6179670;28;20238;-82
2022/04/16 03:43:54;;;;;;;3.30;3.00;;;;;;;7.64;71.18;98262.59;6179245;28;20239;-82
2022/04/16 03:46:56;;;;;;;3.50;3.20;;;;;;;7.64;72.08;98267.84;6162119;28;20606;-82
2022/04/16 03:49:58;;;;;;;3.30;3.00;;;;;;;7.65;71.88;98271.31;6178420;28;20245;-82
2022/04/16 03:53:01;;;;;;;3.60;2.80;;;;;;;7.67;72.17;98272.09;6177362;28;20238;-82
2022/04/16 04:02:44;;;;;;;3.00;2.80;;;;;;;7.67;71.93;98274.72;6178368;28;20243;-82
2022/04/16 04:05:53;;;;;;;3.10;2.80;;;;;;;7.66;72.05;98273.88;6179052;28;20259;-82
2022/04/16 04:08:55;;;;;;;3.73;2.97;;;;;;;7.65;71.57;98274.78;6182938;28;20229;-82
2022/04/16 04:11:57;;;;;;;3.10;2.80;;;;;;;7.65;72.28;98279.19;6182078;28;20264;-82
2022/04/16 04:14:59;;;;;;;2.93;2.73;;;;;;;7.65;72.99;98269.53;6182196;28;20599;-82
2022/04/16 04:18:02;;;;;;;3.23;2.93;;;;;;;7.64;72.41;98277.50;6183554;28;20248;-82
2022/04/16 04:21:04;;;;;;;3.00;2.70;;;;;;;7.64;72.44;98273.09;6163951;28;20219;-81
2022/04/16 04:24:06;;;;;;;2.87;2.67;;;;;;;7.62;72.55;98277.59;6174378;28;20205;-82
2022/04/16 04:27:09;;;;;;;3.00;2.70;;;;;;;7.61;73.24;98280.31;6182629;28;20688;-82
2022/04/16 04:30:12;;;;;;;2.40;2.20;;;;;;;7.64;72.85;98285.38;6181941;28;20213;-82
2022/04/16 04:33:14;;;;;;;2.33;2.13;;;;;;;7.64;73.38;98290.63;6166394;28;20199;-82
2022/04/16 04:36:16;;;;;;;3.00;2.80;;;;;;;7.65;73.78;98292.34;6190470;28;20582;-82
2022/04/16 04:39:19;;;;;;;2.60;2.40;;;;;;;7.61;74.16;98294.28;6165862;28;20678;-82
2022/04/16 04:42:28;;;;;;;2.73;2.53;;;;;;;7.62;73.81;98303.84;6182395;28;22767;-82
2022/04/16 04:45:31;;;;;;;2.63;2.43;;;;;;;7.63;73.00;98302.94;6183504;28;20701;-82
2022/04/16 04:48:34;;;;;;;3.20;2.90;;;;;;;7.64;72.75;98299.38;6165359;28;20231;-81
2022/04/16 04:51:36;;;;;;;2.70;2.50;;;;;;;7.64;73.05;98317.75;6182856;28;20818;-82
2022/04/16 04:54:38;;;;;;;3.13;2.87;;;;;;;7.60;73.38;98313.59;6165740;28;20235;-82
2022/04/16 04:57:42;;;;;;;2.73;2.47;;;;;;;7.58;73.70;98315.50;6182374;28;20243;-82
2022/04/16 05:00:44;;;;;;;3.00;2.80;;;;;;;7.57;73.73;98323.47;6165414;28;20235;-82
2022/04/16 05:03:47;;;;;;;3.00;2.70;;;;;;;7.57;73.54;98326.94;6181487;28;20588;-81
2022/04/16 05:06:49;;;;;;;2.97;2.73;;;;;;;7.57;73.21;98329.56;6180914;28;20239;-82
2022/04/16 05:09:56;;;;;;;3.33;3.03;;;;;;;7.53;74.52;98335.91;6181002;28;20243;-82
2022/04/16 05:12:58;;;;;;;3.47;3.17;;;;;;;7.51;74.12;98340.41;6181046;28;20271;-82
2022/04/16 05:16:01;;;;;;;4.10;3.70;;;;;;;7.50;73.68;98349.22;6181268;28;20827;-82
2022/04/16 05:19:06;;;;;;;4.30;3.90;;;;;;;7.45;73.70;98355.69;6181254;28;20570;-82
2022/04/16 05:22:08;;;;;;;4.00;3.60;;;;;;;7.47;74.10;98351.19;6180369;28;20243;-81
2022/04/16 05:25:11;;;;;;;3.90;3.60;;;;;;;7.41;74.80;98355.84;6181367;28;20231;-82
2022/04/16 05:28:13;;;;;;;4.17;3.73;;;;;;;7.38;73.09;98353.41;6180626;28;20222;-81
2022/04/16 05:31:18;;;;;;;4.17;3.77;;;;;;;7.39;73.10;98355.06;6180249;28;20241;-82
2022/04/16 05:34:21;;;;;;;3.50;3.20;;;;;;;7.40;73.31;98358.53;6180358;28;20699;-82
2022/04/16 05:37:23;;;;;;;4.13;3.63;;;;;;;7.41;72.79;98363.72;6200022;28;20753;-82
2022/04/16 05:40:25;;;;;;;4.57;4.17;;;;;;;7.39;72.87;98360.31;6170314;28;20605;-81
2022/04/16 05:43:27;;;;;;;3.97;3.60;;;;;;;7.37;71.42;98372.72;6163588;28;20229;-82
2022/04/16 05:46:29;;;;;;;4.10;3.70;;;;;;;7.38;71.53;98368.31;6179777;28;20241;-82
2022/04/16 05:49:31;;;;;;;3.80;3.43;;;;;;;7.37;71.80;98377.13;6180868;28;20247;-81
2022/04/16 05:52:34;;;;;;;3.53;3.23;;;;;;;7.35;71.92;98376.34;6182128;28;20758;-81
2022/04/16 05:55:38;;;;;;;4.30;3.90;;;;;;;7.36;72.45;98384.16;6181172;28;20735;-82
2022/04/16 05:58:41;;;;;;;4.03;3.63;;;;;;;7.35;72.16;98390.34;6179479;28;20604;-82
2022/04/16 06:01:43;;;;;;;3.80;3.30;;;;;;;7.36;71.77;98381.53;6172868;28;20712;-81
2022/04/16 06:04:45;;;;;;;4.43;3.10;;;;;;;7.32;71.32;98380.00;6152292;28;20239;-82
2022/04/16 06:07:49;;;;;;;3.17;2.87;;;;;;;7.26;70.95;98388.22;6165865;28;20234;-82
2022/04/16 06:10:51;;;;;;;3.20;2.90;;;;;;;7.25;71.22;98385.69;6173235;28;20240;-82
2022/04/16 06:13:53;;;;;;;2.77;2.57;;;;;;;7.19;69.86;98383.38;6179184;28;20233;-81
2022/04/16 06:16:55;;;;;;;2.50;2.30;;;;;;;7.15;69.72;98387.97;6180347;28;20268;-82
2022/04/16 06:19:57;;;;;;;2.50;2.30;;;;;;;7.19;70.74;98386.00;6162091;28;20700;-82
2022/04/16 06:22:59;;;;;;;2.90;2.70;;;;;;;7.19;69.46;98397.34;6181501;28;20605;-82
2022/04/16 06:26:01;;;;;;;3.53;2.53;;;;;;;7.16;69.79;98389.66;6179205;28;20613;-82
2022/04/16 06:29:03;;;;;;;2.87;2.27;;;;;;;7.14;68.51;98398.53;6180747;28;20896;-82
2022/04/16 06:32:06;;;;;;;2.23;2.03;;;;;;;7.17;69.53;98390.50;6179206;28;20453;-82
2022/04/16 06:35:10;;;;;;;2.80;2.60;;;;;;;7.18;70.26;98394.84;6181765;28;20635;-81
2022/04/16 06:38:13;;;;;;;2.70;2.50;;;;;;;7.24;70.60;98384.81;6173283;28;20229;-81
2022/04/16 06:41:15;;;;;;;3.10;2.90;;;;;;;7.22;69.39;98380.59;6181877;28;20243;-82
2022/04/16 06:44:17;;;;;;;3.90;3.50;;;;;;;7.30;70.22;98386.25;6169427;28;20309;-82
2022/04/16 06:47:20;;;;;;;4.10;3.80;;;;;;;7.46;70.27;98376.59;6174759;28;20580;-82
2022/04/16 06:50:22;;;;;;;3.90;3.60;;;;;;;7.56;70.44;98383.03;6178763;28;20233;-82
2022/04/16 06:53:27;;;;;;;4.40;4.00;;;;;;;7.57;68.86;98383.88;6180281;28;20721;-82
2022/04/16 06:56:29;;;;;;;4.47;4.07;;;;;;;7.71;69.89;98394.41;6177861;28;20315;-82
2022/04/16 06:59:32;;;;;;;4.50;4.00;;;;;;;7.83;70.27;98398.13;6163159;28;20234;-81
2022/04/16 07:02:34;;;;;;;4.27;3.87;;;;;;;8.00;68.83;98398.00;6165189;28;20233;-81
2022/04/16 07:05:36;;;;;;;4.13;3.83;;;;;;;8.00;67.46;98398.00;6178227;28;20642;-82
2022/04/16 07:08:38;;;;;;;4.17;3.77;;;;;;;8.12;67.30;98402.53;6167775;28;20251;-82
2022/04/16 07:11:40;;;;;;;3.73;3.17;;;;;;;8.19;67.57;98405.63;6154054;28;20226;-81
2022/04/16 07:14:42;;;;;;;3.33;3.03;;;;;;;8.38;67.60;98416.81;6177325;28;20819;-82
2022/04/16 07:17:47;;;;;;;3.60;3.30;;;;;;;8.34;66.84;98423.19;6177854;28;20232;-82
2022/04/16 07:20:49;;;;;;;4.13;3.83;;;;;;;8.25;66.47;98427.19;6178127;28;20233;-81
2022/04/16 07:23:51;;;;;;;3.93;3.50;;;;;;;8.08;66.53;98429.97;6180684;28;20716;-82
2022/04/16 07:26:55;;;;;;;3.90;3.50;;;;;;;8.07;68.63;98442.25;6177906;28;20232;-82
2022/04/16 07:30:00;;;;;;;5.10;3.80;;;;;;;8.04;66.56;98450.31;6177985;28;20234;-81
2022/04/16 07:33:03;;;;;;;3.73;3.43;;;;;;;8.00;67.38;98454.03;6177651;28;20695;-82
2022/04/16 07:36:05;;;;;;;3.57;3.27;;;;;;;8.07;66.51;98450.13;6178794;28;20221;-81
2022/04/16 07:39:07;;;;;;;4.10;3.70;;;;;;;8.11;66.67;98461.31;6180087;28;20247;-82
2022/04/16 07:42:09;;;;;;;3.60;3.30;;;;;;;7.92;67.65;98458.88;6160763;28;20215;-81
2022/04/16 07:45:11;;;;;;;3.23;2.93;;;;;;;7.91;67.32;98464.22;6161589;28;20212;-82
2022/04/16 07:48:13;;;;;;;3.43;3.17;;;;;;;7.73;67.12;98464.34;6177436;28;20704;-82
2022/04/16 07:51:15;;;;;;;3.17;2.87;;;;;;;7.66;67.67;98464.78;6177768;28;20266;-81
2022/04/16 07:54:17;;;;;;;3.50;3.20;;;;;;;7.63;68.23;98475.44;6161871;28;20786;-81
2022/04/16 07:57:20;;;;;;;3.43;3.13;;;;;;;7.52;68.59;98470.78;6177294;28;20240;-82
2022/04/16 08:00:22;;;;;;;3.37;3.10;;;;;;;7.31;68.81;98477.22;6177340;28;20238;-81
2022/04/16 08:03:24;;;;;;;3.80;3.40;;;;;;;7.33;69.47;98481.47;6177942;28;20225;-82
2022/04/16 08:06:26;;;;;;;3.37;3.10;;;;;;;7.36;69.51;98485.72;6177267;28;20227;-81
2022/04/16 08:09:29;;;;;;;3.30;3.00;;;;;;;7.33;69.66;98491.97;6161303;28;20313;-82
2022/04/16 08:12:31;;;;;;;3.90;3.47;;;;;;;7.33;69.74;98484.09;6177414;28;20656;-81
2022/04/16 08:15:33;;;;;;;3.70;3.40;;;;;;;7.30;69.89;98491.28;6160514;28;20239;-81
2022/04/16 08:18:36;;;;;;;3.50;3.20;;;;;;;7.32;69.68;98500.75;6174220;28;20241;-82
2022/04/16 08:21:38;;;;;;;3.50;3.20;;;;;;;7.27;69.01;98499.34;6178302;28;20584;-81
2022/04/16 08:24:41;;;;;;;3.50;3.20;;;;;;;7.26;69.60;98500.25;6161304;28;20236;-82
2022/04/16 08:27:45;;;;;;;3.50;3.20;;;;;;;7.29;69.55;98511.44;6177708;28;20440;-82
2022/04/16 08:30:47;;;;;;;4.33;3.13;;;;;;;7.21;69.15;98512.78;6179426;28;20229;-82
2022/04/16 08:33:49;;;;;;;3.30;3.00;;;;;;;7.31;69.49;98512.19;6162608;28;20233;-81
2022/04/16 08:36:51;;;;;;;2.87;2.67;;;;;;;7.34;69.20;98509.41;6194074;28;20229;-82
2022/04/16 08:39:53;;;;;;;3.53;2.73;;;;;;;7.35;68.99;98516.38;6163795;28;20320;-82
2022/04/16 08:42:56;;;;;;;3.10;2.77;;;;;;;7.42;69.83;98514.25;6177394;28;20244;-82
2022/04/16 08:46:00;;;;;;;2.80;2.57;;;;;;;7.46;68.81;98512.31;6177900;28;20667;-82
2022/04/16 08:49:02;;;;;;;2.77;2.57;;;;;;;7.45;69.82;98524.59;6161076;28;20268;-81
2022/04/16 08:52:07;;;;;;;2.20;2.10;;;;;;;7.43;69.85;98521.19;6178102;28;20239;-81
2022/04/16 08:55:11;;;;;;;2.60;2.40;;;;;;;7.54;69.29;98531.13;6165081;28;20239;-82
2022/04/16 08:58:13;;;;;;;2.20;2.00;;;;;;;7.56;69.10;98529.25;6181478;28;20240;-82
2022/04/16 09:01:16;;;;;;;2.20;2.00;;;;;;;7.55;68.28;98536.28;6181335;28;20232;-82
2022/04/16 09:04:23;;;;;;;2.40;2.20;;;;;;;7.56;69.49;98534.50;6140923;28;20320;-82
2022/04/16 09:07:25;;;;;;;2.63;2.13;;;;;;;7.62;68.88;98542.91;6150882;28;20590;-81
2022/04/16 09:10:29;;;;;;;2.40;2.10;;;;;;;7.52;68.47;98543.47;6151958;28;20244;-81
2022/04/16 09:13:32;;;;;;;2.20;1.93;;;;;;;7.55;69.05;98549.44;6172372;28;20244;-81
2022/04/16 09:16:39;;;;;;;2.30;2.10;;;;;;;7.35;67.71;98555.75;6181036;28;20431;-82
2022/04/16 09:19:41;;;;;;;1.83;1.70;;;;;;;7.36;67.91;98546.09;6161959;28;20247;-81
2022/04/16 09:22:49;;;;;;;1.73;1.63;;;;;;;7.36;68.24;98552.19;6149939;28;20348;-82
2022/04/16 09:25:51;;;;;;;2.13;1.80;;;;;;;7.43;68.22;98549.22;6200396;28;20277;-81
2022/04/16 09:28:54;;;;;;;2.27;2.07;;;;;;;7.43;68.73;98549.22;6164090;28;20605;-82
2022/04/16 09:31:56;;;;;;;2.13;1.93;;;;;;;7.31;68.15;98555.97;6180977;28;20243;-81
2022/04/16 09:34:58;;;;;;;2.20;1.30;;;;;;;7.37;67.46;98558.31;6165602;28;20236;-81
2022/04/16 09:38:02;;;;;;;2.00;1.50;;;;;;;7.34;68.17;98563.72;6185723;28;20247;-82
2022/04/16 09:41:08;;;;;;;1.70;1.50;;;;;;;7.30;68.07;98563.00;6164444;28;20238;-82
2022/04/16 09:44:21;;;;;;;1.60;1.50;;;;;;;7.30;68.13;98557.75;6173347;28;20241;-81
2022/04/16 09:47:29;;;;;;;1.83;1.73;;;;;;;7.37;68.86;98556.53;6181780;28;20620;-81
2022/04/16 09:50:32;;;;;;;2.13;1.93;;;;;;;7.34;68.64;98563.72;6182167;28;20225;-81
2022/04/16 09:53:37;;;;;;;1.87;1.67;;;;;;;7.20;68.41;98568.81;6163592;28;20238;-81
2022/04/16 09:56:42;;;;;;;1.70;1.60;;;;;;;7.14;68.06;98571.78;6164085;28;20221;-81
2022/04/16 09:59:48;;;;;;;1.80;1.60;;;;;;;7.09;68.44;98574.63;6182007;28;20556;-81
2022/04/16 10:02:52;;;;;;;2.67;1.30;;;;;;;7.07;68.84;98571.25;6179400;28;20239;-81
2022/04/16 10:05:58;;;;;;;2.13;1.87;;;;;;;7.18;69.66;98582.06;6181547;28;20835;-82
2022/04/16 10:09:13;;;;;;;2.37;1.83;;;;;;;7.27;68.78;98571.06;6163117;28;20601;-81
2022/04/16 10:15:23;;;;;;;1.60;1.50;;;;;;;7.51;67.79;98575.94;6181723;28;20223;-81
2022/04/16 10:18:27;;;;;;;1.63;1.53;;;;;;;7.63;68.23;98575.28;6179229;28;20233;-82
2022/04/16 10:21:33;;;;;;;1.97;1.50;;;;;;;7.74;67.67;98581.66;6179677;28;20231;-82
2022/04/16 10:24:35;;;;;;;1.50;1.40;;;;;;;8.03;66.48;98577.41;6179268;28;20236;-81
2022/04/16 10:27:40;;;;;;;1.30;1.20;;;;;;;8.20;64.62;98579.09;6181738;28;20243;-82
2022/04/16 10:30:51;;;;;;;1.40;1.30;;;;;;;8.31;63.96;98575.84;6178773;28;20238;-82
2022/04/16 10:33:58;;;;;;;1.90;1.70;;;;;;;8.60;62.78;98579.47;6163495;28;20230;-81
2022/04/16 10:37:01;;;;;;;2.00;1.60;;;;;;;8.83;62.85;98577.22;6196273;28;20326;-83
2022/04/16 10:40:23;;;;;;;1.50;1.40;;;;;;;8.69;61.98;98576.31;6166627;28;20239;-82
2022/04/16 10:43:33;;;;;;;1.83;1.50;;;;;;;8.55;61.89;98581.53;6183558;28;20240;-82
2022/04/16 10:46:47;;;;;;;1.83;1.57;;;;;;;8.18;62.03;98586.25;6178694;28;20719;-82
2022/04/16 10:49:57;;;;;;;1.90;1.70;;;;;;;8.11;61.78;98584.88;6180330;28;20631;-82
2022/04/16 10:53:01;;;;;;;1.70;1.60;;;;;;;8.14;62.13;98589.97;6162316;28;20247;-82
2022/04/16 10:56:13;;;;;;;3.20;2.07;;;;;;;8.29;61.40;98596.97;6178863;28;20245;-82
2022/04/16 10:59:15;;;;;;;2.50;1.90;;;;;;;8.31;61.69;98599.53;6162710;28;20252;-82
2022/04/16 11:02:22;;;;;;;1.93;1.63;;;;;;;8.17;61.47;98600.31;6178459;28;20237;-81
2022/04/16 11:05:35;;;;;;;2.13;1.70;;;;;;;8.14;59.91;98603.97;6178145;28;20267;-81
2022/04/16 11:08:40;;;;;;;2.20;1.50;;;;;;;8.05;60.25;98607.09;6162864;28;20240;-81
2022/04/16 11:11:43;;;;;;;1.43;1.30;;;;;;;8.09;59.32;98611.22;6179067;28;20616;-82
2022/04/16 11:14:49;;;;;;;1.93;1.73;;;;;;;8.06;58.89;98607.94;6177140;28;20618;-82
2022/04/16 11:17:55;;;;;;;2.10;1.77;;;;;;;7.87;56.94;98613.38;6177735;28;20367;-81
2022/04/16 11:20:58;;;;;;;1.50;1.40;;;;;;;7.75;57.81;98607.00;6179647;28;20243;-83
2022/04/16 11:24:05;;;;;;;1.87;1.60;;;;;;;7.64;57.45;98616.38;6179197;28;20229;-81
2022/04/16 11:37:10;;;;;;;2.17;1.97;;;;;;;7.86;59.91;98614.28;6187182;28;20272;-81
2022/04/16 11:40:12;;;;;;;1.90;1.70;;;;;;;7.65;57.91;98611.06;6177818;28;20692;-81
2022/04/16 11:43:14;;;;;;;2.23;1.97;;;;;;;7.71;58.45;98609.84;6178045;28;20225;-81
2022/04/16 11:46:17;;;;;;;2.40;1.90;;;;;;;7.84;59.06;98621.41;6178163;28;20577;-82
2022/04/16 11:49:19;;;;;;;2.00;1.90;;;;;;;7.95;59.08;98619.06;6162412;28;20703;-81
2022/04/16 11:52:26;;;;;;;2.37;2.10;;;;;;;7.91;58.53;98614.88;6177212;28;20281;-81
2022/04/16 11:55:28;;;;;;;1.97;1.73;;;;;;;7.89;58.50;98610.63;6178853;28;20234;-82
2022/04/16 11:58:30;;;;;;;2.17;1.97;;;;;;;8.07;58.50;98609.66;6157420;28;20700;-82
2022/04/16 12:01:32;;;;;;;2.27;2.07;;;;;;;8.10;59.85;98617.34;6178286;28;20268;-81
2022/04/16 12:04:43;;;;;;;3.50;2.10;;;;;;;7.82;58.19;98612.75;6177600;28;20242;-81
2022/04/16 12:07:50;;;;;;;3.23;2.30;;;;;;;7.74;57.97;98620.22;6160450;28;20236;-81
2022/04/16 12:10:52;;;;;;;2.63;2.30;;;;;;;7.72;57.93;98622.91;6162497;28;20226;-81
2022/04/16 12:13:54;;;;;;;2.13;1.83;;;;;;;7.58;58.56;98614.94;6177964;28;20232;-81
2022/04/16 12:17:01;;;;;;;2.47;2.27;;;;;;;7.58;58.12;98625.44;6177611;28;20723;-82
2022/04/16 12:20:09;;;;;;;2.50;2.10;;;;;;;7.58;58.42;98632.47;6152893;28;20229;-81
2022/04/16 12:23:22;;;;;;;2.90;2.30;;;;;;;7.47;58.48;98625.16;6177041;28;20232;-81
2022/04/16 12:26:24;;;;;;;2.10;1.90;;;;;;;7.39;58.24;98628.16;6170240;28;20669;-81
2022/04/16 12:29:28;;;;;;;2.63;2.23;;;;;;;7.26;58.80;98631.53;6171598;28;20247;-81
2022/04/16 12:32:30;;;;;;;1.83;1.73;;;;;;;7.33;58.81;98627.66;6165957;28;20242;-81
2022/04/16 12:35:37;;;;;;;2.27;2.00;;;;;;;7.40;59.15;98618.50;6182745;28;20254;-81
2022/04/16 12:38:39;;;;;;;2.00;1.90;;;;;;;7.39;57.79;98624.69;6182885;28;20228;-81
2022/04/16 12:41:41;;;;;;;2.10;1.90;;;;;;;7.50;58.50;98630.22;6183676;28;20657;-81
2022/04/16 12:44:43;;;;;;;2.17;1.97;;;;;;;7.55;56.77;98636.09;6181430;28;20232;-81
2022/04/16 12:47:46;;;;;;;1.97;1.87;;;;;;;7.51;53.82;98625.81;6183185;28;20723;-81
2022/04/16 12:50:48;;;;;;;2.27;2.07;;;;;;;7.72;53.04;98633.44;6164856;28;20266;-82
2022/04/16 12:53:50;;;;;;;2.67;1.90;;;;;;;7.91;53.07;98624.53;6177809;28;20243;-82
2022/04/16 12:56:52;;;;;;;2.17;1.80;;;;;;;8.06;52.02;98627.19;6187184;28;20236;-81
2022/04/16 12:59:54;;;;;;;1.77;1.67;;;;;;;8.30;50.96;98618.88;6180731;28;20799;-82
2022/04/16 13:02:59;;;;;;;1.50;1.40;;;;;;;8.24;51.12;98606.06;6181247;28;20554;-82
2022/04/16 13:06:02;;;;;;;2.40;1.70;;;;;;;8.19;49.98;98611.56;6140848;28;20864;-82
2022/04/16 13:09:04;;;;;;;2.33;1.70;;;;;;;8.27;49.09;98604.13;6182814;28;20220;-81
2022/04/16 13:12:06;;;;;;;3.20;1.77;;;;;;;8.38;48.61;98609.66;6181159;28;20687;-82
2022/04/16 13:15:11;;;;;;;2.80;1.97;;;;;;;8.22;48.21;98598.25;6164981;28;20743;-82
2022/04/16 13:18:13;;;;;;;2.07;1.70;;;;;;;8.39;49.00;98606.06;6180960;28;20738;-81
2022/04/16 13:21:15;;;;;;;3.23;1.83;;;;;;;8.20;50.02;98597.50;6172142;28;20602;-82
2022/04/16 13:24:18;;;;;;;3.70;2.00;;;;;;;8.00;49.67;98598.59;6164022;28;20240;-81
2022/04/16 13:27:20;;;;;;;1.60;1.50;;;;;;;8.14;49.66;98603.97;6163548;28;20245;-82
2022/04/16 13:30:22;;;;;;;2.50;1.87;;;;;;;8.07;49.81;98593.88;6181640;28;20236;-81
2022/04/16 13:33:25;;;;;;;2.40;1.80;;;;;;;8.35;51.26;98608.97;6180297;28;20233;-82
2022/04/16 13:36:27;;;;;;;1.93;1.80;;;;;;;8.38;49.35;98614.06;6193537;28;20227;-81
2022/04/16 13:42:51;;;;;;;4.53;2.20;;;;;;;8.49;48.66;98606.41;6180482;28;20704;-82
2022/04/16 13:45:53;;;;;;;2.63;2.10;;;;;;;8.47;48.66;98617.03;6164500;28;20241;-82
2022/04/16 13:48:56;;;;;;;2.90;2.07;;;;;;;8.46;48.46;98625.00;6180502;28;20594;-82
2022/04/16 13:52:00;;;;;;;2.10;1.90;;;;;;;9.03;47.94;98610.25;6179463;28;20388;-82
2022/04/16 13:55:04;;;;;;;2.53;1.97;;;;;;;9.31;47.57;98613.88;6181347;28;20242;-82
2022/04/16 13:58:06;;;;;;;2.27;1.83;;;;;;;9.27;46.24;98609.75;6164951;28;20233;-81
2022/04/16 14:01:13;;;;;;;2.57;2.13;;;;;;;9.02;46.66;98610.34;6181043;28;20237;-81
2022/04/16 14:04:16;;;;;;;2.87;2.40;;;;;;;8.86;46.21;98606.00;6180356;28;20239;-81
2022/04/16 14:07:19;;;;;;;3.43;2.27;;;;;;;8.95;46.07;98609.88;6165429;28;20716;-82
2022/04/16 14:10:28;;;;;;;2.80;2.10;;;;;;;12.75;40.25;98600.25;6165767;28;20254;-82
2022/04/16 14:13:32;;;;;;;2.50;2.27;;;;;;;16.65;31.25;98594.59;6165110;28;20240;-82
2022/04/16 14:16:34;;;;;;;2.40;2.07;;;;;;;13.53;35.65;98616.41;6165426;28;20703;-82
2022/04/16 14:19:37;;;;;;;2.17;1.87;;;;;;;11.52;38.67;98598.56;6151465;28;20705;-83
2022/04/16 14:22:39;;;;;;;2.37;2.17;;;;;;;10.49;42.40;98602.91;6168836;28;20734;-82
2022/04/16 14:25:41;;;;;;;2.57;1.80;;;;;;;9.96;43.16;98612.47;6179250;28;20239;-82
2022/04/16 14:28:43;;;;;;;2.77;2.33;;;;;;;9.63;44.40;98608.34;6178780;28;20593;-82
2022/04/16 14:31:46;;;;;;;2.33;1.73;;;;;;;11.74;39.84;98603.19;6179388;28;20709;-82
2022/04/16 14:34:50;;;;;;;1.93;1.73;;;;;;;15.16;33.96;98591.72;6177854;28;20247;-82
2022/04/16 14:37:52;;;;;;;2.47;1.93;;;;;;;17.12;30.34;98598.25;6184512;28;20348;-82
2022/04/16 14:41:09;;;;;;;1.90;1.70;;;;;;;20.47;25.61;98604.00;6162962;28;20237;-82
2022/04/16 14:44:12;;;;;;;2.63;2.20;;;;;;;21.51;24.64;98619.59;6178204;28;20400;-82
2022/04/16 14:47:14;;;;;;;1.70;1.60;;;;;;;17.03;29.86;98618.63;6163012;28;20618;-82
2022/04/16 14:50:16;;;;;;;1.90;1.80;;;;;;;14.56;34.23;98630.38;6162465;28;20745;-82
2022/04/16 14:53:18;;;;;;;2.53;2.00;;;;;;;11.57;37.82;98644.03;6162059;28;20226;-82
2022/04/16 14:56:20;;;;;;;2.40;2.10;;;;;;;10.06;41.78;98647.88;6163555;28;20225;-82
2022/04/16 14:59:22;;;;;;;4.13;2.37;;;;;;;9.53;44.06;98645.88;6178854;28;20726;-81
2022/04/16 15:02:24;;;;;;;3.00;2.10;;;;;;;9.31;44.06;98638.41;6179227;28;20233;-82